sensor_id;sensor_type;location;lat;lon;timestamp;temperature;humidity
44111;DHT22;29774;52.664;5.074;2022-10-01T00:01:53;16.10;70.10
44111;DHT22;29774;52.664;5.074;2022-10-01T00:04:18;15.80;70.90
44111;DHT22;29774;52.664;5.074;2022-10-01T00:06:44;15.90;71.50
44111;DHT22;29774;52.664;5.074;2022-10-01T00:09:09;15.90;71.20
44111;DHT22;29774;52.664;5.074;2022-10-01T00:11:35;15.70;71.90
44111;DHT22;29774;52.664;5.074;2022-10-01T00:14:00;15.80;71.40
44111;DHT22;29774;52.664;5.074;2022-10-01T00:16:28;15.90;71.30
44111;DHT22;29774;52.664;5.074;2022-10-01T00:18:54;15.90;70.70
44111;DHT22;29774;52.664;5.074;2022-10-01T00:21:22;15.50;72.60
44111;DHT22;29774;52.664;5.074;2022-10-01T00:23:56;15.40;72.90
44111;DHT22;29774;52.664;5.074;2022-10-01T00:26:25;15.60;71.90
44111;DHT22;29774;52.664;5.074;2022-10-01T00:28:56;15.60;73.10
44111;DHT22;29774;52.664;5.074;2022-10-01T00:31:23;15.40;72.80
44111;DHT22;29774;52.664;5.074;2022-10-01T00:33:51;15.70;72.10
44111;DHT22;29774;52.664;5.074;2022-10-01T00:36:17;15.70;71.70
44111;DHT22;29774;52.664;5.074;2022-10-01T00:38:43;15.20;74.20
44111;DHT22;29774;52.664;5.074;2022-10-01T00:41:10;15.70;71.90
44111;DHT22;29774;52.664;5.074;2022-10-01T00:43:41;16.00;70.70
44111;DHT22;29774;52.664;5.074;2022-10-01T00:48:54;15.80;71.50
44111;DHT22;29774;52.664;5.074;2022-10-01T00:51:23;15.80;71.60
44111;DHT22;29774;52.664;5.074;2022-10-01T00:53:53;16.00;70.70
44111;DHT22;29774;52.664;5.074;2022-10-01T00:56:21;15.80;71.40
44111;DHT22;29774;52.664;5.074;2022-10-01T00:58:47;15.90;71.30
44111;DHT22;29774;52.664;5.074;2022-10-01T01:01:19;15.90;70.80
44111;DHT22;29774;52.664;5.074;2022-10-01T01:03:45;15.70;71.90
44111;DHT22;29774;52.664;5.074;2022-10-01T01:06:11;14.80;75.70
44111;DHT22;29774;52.664;5.074;2022-10-01T01:08:37;15.60;72.40
44111;DHT22;29774;52.664;5.074;2022-10-01T01:13:57;15.60;72.20
44111;DHT22;29774;52.664;5.074;2022-10-01T01:16:51;15.30;73.50
44111;DHT22;29774;52.664;5.074;2022-10-01T01:19:42;15.40;73.00
44111;DHT22;29774;52.664;5.074;2022-10-01T01:22:15;15.80;71.70
44111;DHT22;29774;52.664;5.074;2022-10-01T01:24:48;16.00;70.70
44111;DHT22;29774;52.664;5.074;2022-10-01T01:27:28;15.80;71.70
44111;DHT22;29774;52.664;5.074;2022-10-01T01:30:03;15.80;71.30
44111;DHT22;29774;52.664;5.074;2022-10-01T01:34:59;15.90;71.10
44111;DHT22;29774;52.664;5.074;2022-10-01T01:37:29;15.60;72.60
44111;DHT22;29774;52.664;5.074;2022-10-01T01:39:57;15.70;71.40
44111;DHT22;29774;52.664;5.074;2022-10-01T01:42:30;15.80;71.20
44111;DHT22;29774;52.664;5.074;2022-10-01T01:44:59;15.70;72.00
44111;DHT22;29774;52.664;5.074;2022-10-01T01:47:27;15.80;71.70
44111;DHT22;29774;52.664;5.074;2022-10-01T01:49:57;15.70;72.10
44111;DHT22;29774;52.664;5.074;2022-10-01T01:52:24;15.70;71.90
44111;DHT22;29774;52.664;5.074;2022-10-01T01:54:50;15.90;72.10
44111;DHT22;29774;52.664;5.074;2022-10-01T01:57:17;15.80;71.90
44111;DHT22;29774;52.664;5.074;2022-10-01T01:59:44;15.80;71.60
44111;DHT22;29774;52.664;5.074;2022-10-01T02:02:16;15.80;71.80
44111;DHT22;29774;52.664;5.074;2022-10-01T02:04:52;16.00;71.30
44111;DHT22;29774;52.664;5.074;2022-10-01T02:21:58;15.80;71.60
44111;DHT22;29774;52.664;5.074;2022-10-01T02:27:10;15.70;72.00
44111;DHT22;29774;52.664;5.074;2022-10-01T02:29:38;15.80;71.60
44111;DHT22;29774;52.664;5.074;2022-10-01T02:32:05;15.80;71.20
44111;DHT22;29774;52.664;5.074;2022-10-01T02:34:31;15.80;71.70
44111;DHT22;29774;52.664;5.074;2022-10-01T02:37:00;15.70;72.20
44111;DHT22;29774;52.664;5.074;2022-10-01T02:39:29;15.90;70.80
44111;DHT22;29774;52.664;5.074;2022-10-01T02:41:57;16.00;70.60
44111;DHT22;29774;52.664;5.074;2022-10-01T02:44:27;15.80;71.80
44111;DHT22;29774;52.664;5.074;2022-10-01T02:47:00;15.70;72.10
44111;DHT22;29774;52.664;5.074;2022-10-01T02:49:28;15.60;72.30
44111;DHT22;29774;52.664;5.074;2022-10-01T02:57:31;16.10;71.10
44111;DHT22;29774;52.664;5.074;2022-10-01T03:00:17;16.10;71.30
44111;DHT22;29774;52.664;5.074;2022-10-01T03:02:46;16.10;71.20
44111;DHT22;29774;52.664;5.074;2022-10-01T03:05:12;16.20;70.80
44111;DHT22;29774;52.664;5.074;2022-10-01T03:07:39;16.20;70.90
44111;DHT22;29774;52.664;5.074;2022-10-01T03:10:06;16.10;70.60
44111;DHT22;29774;52.664;5.074;2022-10-01T03:12:38;15.80;71.80
44111;DHT22;29774;52.664;5.074;2022-10-01T03:15:10;16.00;71.40
44111;DHT22;29774;52.664;5.074;2022-10-01T03:17:36;16.00;72.20
44111;DHT22;29774;52.664;5.074;2022-10-01T03:20:03;15.80;72.30
44111;DHT22;29774;52.664;5.074;2022-10-01T03:22:28;15.80;72.30
44111;DHT22;29774;52.664;5.074;2022-10-01T03:24:54;15.80;73.10
44111;DHT22;29774;52.664;5.074;2022-10-01T03:27:20;15.60;72.60
44111;DHT22;29774;52.664;5.074;2022-10-01T03:29:46;15.70;73.30
44111;DHT22;29774;52.664;5.074;2022-10-01T03:32:13;15.50;73.70
44111;DHT22;29774;52.664;5.074;2022-10-01T03:34:38;15.70;73.30
44111;DHT22;29774;52.664;5.074;2022-10-01T03:37:04;15.90;72.30
44111;DHT22;29774;52.664;5.074;2022-10-01T03:39:29;16.00;72.20
44111;DHT22;29774;52.664;5.074;2022-10-01T03:41:55;15.70;74.00
44111;DHT22;29774;52.664;5.074;2022-10-01T03:44:21;15.10;77.20
44111;DHT22;29774;52.664;5.074;2022-10-01T03:46:46;15.30;76.90
44111;DHT22;29774;52.664;5.074;2022-10-01T03:49:12;14.90;77.90
44111;DHT22;29774;52.664;5.074;2022-10-01T03:51:38;14.20;83.50
44111;DHT22;29774;52.664;5.074;2022-10-01T03:54:04;13.50;87.00
44111;DHT22;29774;52.664;5.074;2022-10-01T03:56:31;13.50;87.20
44111;DHT22;29774;52.664;5.074;2022-10-01T03:58:57;13.70;84.70
44111;DHT22;29774;52.664;5.074;2022-10-01T04:01:23;14.20;82.40
44111;DHT22;29774;52.664;5.074;2022-10-01T04:03:48;13.70;86.20
44111;DHT22;29774;52.664;5.074;2022-10-01T04:06:15;14.20;81.80
44111;DHT22;29774;52.664;5.074;2022-10-01T04:08:41;14.20;83.00
44111;DHT22;29774;52.664;5.074;2022-10-01T04:11:07;13.50;86.20
44111;DHT22;29774;52.664;5.074;2022-10-01T04:13:33;13.70;84.30
44111;DHT22;29774;52.664;5.074;2022-10-01T04:15:59;13.60;86.20
44111;DHT22;29774;52.664;5.074;2022-10-01T04:18:25;13.30;87.30
44111;DHT22;29774;52.664;5.074;2022-10-01T04:20:51;13.40;87.40
44111;DHT22;29774;52.664;5.074;2022-10-01T04:23:16;13.40;86.50
44111;DHT22;29774;52.664;5.074;2022-10-01T04:25:42;13.00;89.40
44111;DHT22;29774;52.664;5.074;2022-10-01T04:28:10;12.70;90.90
44111;DHT22;29774;52.664;5.074;2022-10-01T04:30:39;12.50;91.50
44111;DHT22;29774;52.664;5.074;2022-10-01T04:33:05;12.60;91.70
44111;DHT22;29774;52.664;5.074;2022-10-01T04:35:31;12.40;91.70
44111;DHT22;29774;52.664;5.074;2022-10-01T04:37:59;12.30;92.00
44111;DHT22;29774;52.664;5.074;2022-10-01T04:40:28;12.10;92.20
44111;DHT22;29774;52.664;5.074;2022-10-01T04:42:54;12.20;92.40
44111;DHT22;29774;52.664;5.074;2022-10-01T04:45:20;12.20;92.70
44111;DHT22;29774;52.664;5.074;2022-10-01T04:47:47;12.10;92.80
44111;DHT22;29774;52.664;5.074;2022-10-01T04:50:14;12.30;92.70
44111;DHT22;29774;52.664;5.074;2022-10-01T04:52:40;12.20;91.90
44111;DHT22;29774;52.664;5.074;2022-10-01T04:55:06;12.20;92.20
44111;DHT22;29774;52.664;5.074;2022-10-01T04:57:33;12.10;92.70
44111;DHT22;29774;52.664;5.074;2022-10-01T04:59:58;12.00;92.70
44111;DHT22;29774;52.664;5.074;2022-10-01T05:02:24;11.90;92.90
44111;DHT22;29774;52.664;5.074;2022-10-01T05:04:49;11.90;93.30
44111;DHT22;29774;52.664;5.074;2022-10-01T05:07:15;11.90;93.50
44111;DHT22;29774;52.664;5.074;2022-10-01T05:09:40;11.90;93.60
44111;DHT22;29774;52.664;5.074;2022-10-01T05:12:06;11.90;93.60
44111;DHT22;29774;52.664;5.074;2022-10-01T05:14:32;11.70;93.70
44111;DHT22;29774;52.664;5.074;2022-10-01T05:16:58;11.80;93.90
44111;DHT22;29774;52.664;5.074;2022-10-01T05:19:24;11.70;93.80
44111;DHT22;29774;52.664;5.074;2022-10-01T05:21:53;11.70;93.90
44111;DHT22;29774;52.664;5.074;2022-10-01T05:24:19;11.80;94.00
44111;DHT22;29774;52.664;5.074;2022-10-01T05:26:44;11.90;94.10
44111;DHT22;29774;52.664;5.074;2022-10-01T05:29:10;11.70;93.80
44111;DHT22;29774;52.664;5.074;2022-10-01T05:31:35;11.70;93.90
44111;DHT22;29774;52.664;5.074;2022-10-01T05:34:01;11.70;93.90
44111;DHT22;29774;52.664;5.074;2022-10-01T05:36:26;11.50;93.60
44111;DHT22;29774;52.664;5.074;2022-10-01T05:38:52;11.30;93.70
44111;DHT22;29774;52.664;5.074;2022-10-01T05:41:18;11.40;93.80
44111;DHT22;29774;52.664;5.074;2022-10-01T05:43:47;11.30;93.80
44111;DHT22;29774;52.664;5.074;2022-10-01T05:46:13;11.30;94.00
44111;DHT22;29774;52.664;5.074;2022-10-01T05:48:38;11.20;94.00
44111;DHT22;29774;52.664;5.074;2022-10-01T05:51:05;11.10;93.90
44111;DHT22;29774;52.664;5.074;2022-10-01T05:53:33;11.30;94.20
44111;DHT22;29774;52.664;5.074;2022-10-01T05:56:01;11.20;94.10
44111;DHT22;29774;52.664;5.074;2022-10-01T05:58:27;11.30;94.10
44111;DHT22;29774;52.664;5.074;2022-10-01T06:00:54;11.60;94.20
44111;DHT22;29774;52.664;5.074;2022-10-01T06:03:20;11.50;93.90
44111;DHT22;29774;52.664;5.074;2022-10-01T06:05:45;11.70;94.30
44111;DHT22;29774;52.664;5.074;2022-10-01T06:08:11;11.90;94.20
44111;DHT22;29774;52.664;5.074;2022-10-01T06:10:37;12.10;94.30
44111;DHT22;29774;52.664;5.074;2022-10-01T06:13:04;12.20;94.30
44111;DHT22;29774;52.664;5.074;2022-10-01T06:15:37;12.30;94.30
44111;DHT22;29774;52.664;5.074;2022-10-01T06:18:07;12.40;94.40
44111;DHT22;29774;52.664;5.074;2022-10-01T06:20:34;12.40;94.30
44111;DHT22;29774;52.664;5.074;2022-10-01T06:23:00;12.30;94.10
44111;DHT22;29774;52.664;5.074;2022-10-01T06:25:26;12.40;94.00
44111;DHT22;29774;52.664;5.074;2022-10-01T06:28:13;12.40;93.80
44111;DHT22;29774;52.664;5.074;2022-10-01T06:30:39;12.30;93.50
44111;DHT22;29774;52.664;5.074;2022-10-01T06:33:09;12.40;93.60
44111;DHT22;29774;52.664;5.074;2022-10-01T06:35:40;12.50;93.80
44111;DHT22;29774;52.664;5.074;2022-10-01T06:38:06;12.70;94.10
44111;DHT22;29774;52.664;5.074;2022-10-01T06:40:32;13.10;94.60
44111;DHT22;29774;52.664;5.074;2022-10-01T06:42:58;13.60;95.00
44111;DHT22;29774;52.664;5.074;2022-10-01T06:45:28;13.90;94.90
44111;DHT22;29774;52.664;5.074;2022-10-01T06:47:58;14.10;94.70
44111;DHT22;29774;52.664;5.074;2022-10-01T06:50:27;14.00;94.40
44111;DHT22;29774;52.664;5.074;2022-10-01T06:52:52;13.90;93.00
44111;DHT22;29774;52.664;5.074;2022-10-01T06:55:27;14.80;80.40
44111;DHT22;29774;52.664;5.074;2022-10-01T06:58:13;15.10;79.00
44111;DHT22;29774;52.664;5.074;2022-10-01T07:00:41;14.00;84.50
44111;DHT22;29774;52.664;5.074;2022-10-01T07:03:08;14.00;83.00
44111;DHT22;29774;52.664;5.074;2022-10-01T07:05:36;13.60;84.20
44111;DHT22;29774;52.664;5.074;2022-10-01T07:08:02;13.30;84.90
44111;DHT22;29774;52.664;5.074;2022-10-01T07:10:28;12.60;88.30
44111;DHT22;29774;52.664;5.074;2022-10-01T07:12:53;12.40;89.80
44111;DHT22;29774;52.664;5.074;2022-10-01T07:15:20;12.30;90.50
44111;DHT22;29774;52.664;5.074;2022-10-01T07:17:50;12.20;91.50
44111;DHT22;29774;52.664;5.074;2022-10-01T07:20:18;12.00;91.90
44111;DHT22;29774;52.664;5.074;2022-10-01T07:22:44;12.10;92.10
44111;DHT22;29774;52.664;5.074;2022-10-01T07:25:10;12.10;92.70
44111;DHT22;29774;52.664;5.074;2022-10-01T07:27:36;12.20;93.30
44111;DHT22;29774;52.664;5.074;2022-10-01T07:30:03;12.30;93.70
44111;DHT22;29774;52.664;5.074;2022-10-01T07:32:29;12.70;94.30
44111;DHT22;29774;52.664;5.074;2022-10-01T07:34:56;13.00;94.40
44111;DHT22;29774;52.664;5.074;2022-10-01T07:37:22;13.20;94.30
44111;DHT22;29774;52.664;5.074;2022-10-01T07:39:48;13.60;94.10
44111;DHT22;29774;52.664;5.074;2022-10-01T07:42:14;14.00;93.70
44111;DHT22;29774;52.664;5.074;2022-10-01T07:44:39;14.40;92.90
44111;DHT22;29774;52.664;5.074;2022-10-01T07:47:05;15.00;92.30
44111;DHT22;29774;52.664;5.074;2022-10-01T07:49:30;15.10;90.40
44111;DHT22;29774;52.664;5.074;2022-10-01T07:51:56;14.90;90.40
44111;DHT22;29774;52.664;5.074;2022-10-01T07:54:23;14.60;91.00
44111;DHT22;29774;52.664;5.074;2022-10-01T07:56:50;14.40;90.40
44111;DHT22;29774;52.664;5.074;2022-10-01T07:59:23;14.30;91.30
44111;DHT22;29774;52.664;5.074;2022-10-01T08:01:50;14.40;91.90
44111;DHT22;29774;52.664;5.074;2022-10-01T08:04:19;14.90;90.30
44111;DHT22;29774;52.664;5.074;2022-10-01T08:07:04;15.00;82.50
44111;DHT22;29774;52.664;5.074;2022-10-01T08:09:30;15.50;78.60
44111;DHT22;29774;52.664;5.074;2022-10-01T08:11:56;15.70;87.00
44111;DHT22;29774;52.664;5.074;2022-10-01T08:14:21;15.90;85.10
44111;DHT22;29774;52.664;5.074;2022-10-01T08:16:47;16.20;85.00
44111;DHT22;29774;52.664;5.074;2022-10-01T08:19:13;16.40;85.50
44111;DHT22;29774;52.664;5.074;2022-10-01T08:21:39;16.40;74.80
44111;DHT22;29774;52.664;5.074;2022-10-01T08:24:05;16.70;80.90
44111;DHT22;29774;52.664;5.074;2022-10-01T08:26:31;16.80;82.00
44111;DHT22;29774;52.664;5.074;2022-10-01T08:28:57;16.80;75.00
44111;DHT22;29774;52.664;5.074;2022-10-01T08:31:23;16.70;75.50
44111;DHT22;29774;52.664;5.074;2022-10-01T08:33:49;16.70;76.90
44111;DHT22;29774;52.664;5.074;2022-10-01T08:36:15;16.50;74.70
44111;DHT22;29774;52.664;5.074;2022-10-01T08:38:44;16.60;74.80
44111;DHT22;29774;52.664;5.074;2022-10-01T08:44:02;16.60;73.50
44111;DHT22;29774;52.664;5.074;2022-10-01T08:46:30;16.50;75.20
44111;DHT22;29774;52.664;5.074;2022-10-01T08:49:14;16.50;79.20
44111;DHT22;29774;52.664;5.074;2022-10-01T08:56:48;16.50;72.90
44111;DHT22;29774;52.664;5.074;2022-10-01T09:01:55;16.50;73.50
44111;DHT22;29774;52.664;5.074;2022-10-01T09:04:21;16.50;72.80
44111;DHT22;29774;52.664;5.074;2022-10-01T09:06:52;16.60;73.80
44111;DHT22;29774;52.664;5.074;2022-10-01T09:09:33;16.50;73.10
44111;DHT22;29774;52.664;5.074;2022-10-01T09:12:43;16.80;73.80
44111;DHT22;29774;52.664;5.074;2022-10-01T09:15:25;16.60;72.70
44111;DHT22;29774;52.664;5.074;2022-10-01T09:20:38;16.60;73.50
44111;DHT22;29774;52.664;5.074;2022-10-01T09:23:19;16.70;74.80
44111;DHT22;29774;52.664;5.074;2022-10-01T09:25:49;16.70;76.90
44111;DHT22;29774;52.664;5.074;2022-10-01T09:28:20;16.70;75.00
44111;DHT22;29774;52.664;5.074;2022-10-01T09:33:42;17.00;71.30
44111;DHT22;29774;52.664;5.074;2022-10-01T09:36:21;16.80;72.00
44111;DHT22;29774;52.664;5.074;2022-10-01T09:39:11;16.80;73.60
44111;DHT22;29774;52.664;5.074;2022-10-01T09:41:39;16.70;73.10
44111;DHT22;29774;52.664;5.074;2022-10-01T09:44:06;16.70;73.20
44111;DHT22;29774;52.664;5.074;2022-10-01T09:46:36;16.70;72.60
44111;DHT22;29774;52.664;5.074;2022-10-01T09:49:26;16.70;73.50
44111;DHT22;29774;52.664;5.074;2022-10-01T09:51:57;16.70;73.40
44111;DHT22;29774;52.664;5.074;2022-10-01T09:54:31;16.80;73.90
44111;DHT22;29774;52.664;5.074;2022-10-01T09:57:06;16.80;73.50
44111;DHT22;29774;52.664;5.074;2022-10-01T10:02:35;17.10;72.20
44111;DHT22;29774;52.664;5.074;2022-10-01T10:05:09;17.10;72.00
44111;DHT22;29774;52.664;5.074;2022-10-01T10:07:37;17.00;73.00
44111;DHT22;29774;52.664;5.074;2022-10-01T10:10:18;16.90;72.60
44111;DHT22;29774;52.664;5.074;2022-10-01T10:12:44;16.80;73.20
44111;DHT22;29774;52.664;5.074;2022-10-01T10:15:16;16.80;72.90
44111;DHT22;29774;52.664;5.074;2022-10-01T10:17:45;16.70;73.40
44111;DHT22;29774;52.664;5.074;2022-10-01T10:20:37;16.70;72.70
44111;DHT22;29774;52.664;5.074;2022-10-01T10:23:18;16.70;73.60
44111;DHT22;29774;52.664;5.074;2022-10-01T10:26:04;16.70;75.00
44111;DHT22;29774;52.664;5.074;2022-10-01T10:28:42;17.00;77.60
44111;DHT22;29774;52.664;5.074;2022-10-01T10:31:28;17.20;80.60
44111;DHT22;29774;52.664;5.074;2022-10-01T10:34:06;17.30;71.50
44111;DHT22;29774;52.664;5.074;2022-10-01T10:36:37;17.20;71.60
44111;DHT22;29774;52.664;5.074;2022-10-01T10:39:04;17.10;71.90
44111;DHT22;29774;52.664;5.074;2022-10-01T10:41:33;17.20;71.70
44111;DHT22;29774;52.664;5.074;2022-10-01T10:44:03;17.30;73.60
44111;DHT22;29774;52.664;5.074;2022-10-01T10:46:36;17.20;73.10
44111;DHT22;29774;52.664;5.074;2022-10-01T10:49:21;17.10;72.20
44111;DHT22;29774;52.664;5.074;2022-10-01T10:51:50;17.50;75.50
44111;DHT22;29774;52.664;5.074;2022-10-01T10:54:33;17.40;71.00
44111;DHT22;29774;52.664;5.074;2022-10-01T10:57:24;17.10;72.40
44111;DHT22;29774;52.664;5.074;2022-10-01T11:00:22;17.40;72.70
44111;DHT22;29774;52.664;5.074;2022-10-01T11:02:58;17.50;74.20
44111;DHT22;29774;52.664;5.074;2022-10-01T11:05:26;17.20;72.00
44111;DHT22;29774;52.664;5.074;2022-10-01T11:08:05;17.30;73.00
44111;DHT22;29774;52.664;5.074;2022-10-01T11:11:06;17.30;72.40
44111;DHT22;29774;52.664;5.074;2022-10-01T11:25:23;17.10;72.50
44111;DHT22;29774;52.664;5.074;2022-10-01T11:30:57;17.30;71.50
44111;DHT22;29774;52.664;5.074;2022-10-01T11:33:34;17.50;73.60
44111;DHT22;29774;52.664;5.074;2022-10-01T11:36:42;17.50;75.60
44111;DHT22;29774;52.664;5.074;2022-10-01T11:39:03;17.60;70.40
44111;DHT22;29774;52.664;5.074;2022-10-01T11:41:37;17.60;71.50
44111;DHT22;29774;52.664;5.074;2022-10-01T11:44:21;17.60;73.00
44111;DHT22;29774;52.664;5.074;2022-10-01T11:54:36;17.50;73.70
44111;DHT22;29774;52.664;5.074;2022-10-01T11:57:03;17.50;71.40
44111;DHT22;29774;52.664;5.074;2022-10-01T11:59:58;17.30;71.80
44111;DHT22;29774;52.664;5.074;2022-10-01T12:05:17;17.20;72.10
44111;DHT22;29774;52.664;5.074;2022-10-01T12:08:03;17.30;72.60
44111;DHT22;29774;52.664;5.074;2022-10-01T12:13:29;17.30;73.00
44111;DHT22;29774;52.664;5.074;2022-10-01T12:21:28;17.30;71.50
44111;DHT22;29774;52.664;5.074;2022-10-01T12:24:14;17.60;70.80
44111;DHT22;29774;52.664;5.074;2022-10-01T12:51:44;17.30;71.40
44111;DHT22;29774;52.664;5.074;2022-10-01T12:57:16;17.30;71.90
44111;DHT22;29774;52.664;5.074;2022-10-01T13:23:55;17.20;72.30
44111;DHT22;29774;52.664;5.074;2022-10-01T13:26:27;17.20;72.10
44111;DHT22;29774;52.664;5.074;2022-10-01T13:31:35;17.20;71.90
44111;DHT22;29774;52.664;5.074;2022-10-01T13:34:02;17.20;72.00
44111;DHT22;29774;52.664;5.074;2022-10-01T13:36:30;17.10;71.70
44111;DHT22;29774;52.664;5.074;2022-10-01T13:38:56;17.10;72.20
44111;DHT22;29774;52.664;5.074;2022-10-01T13:41:30;17.20;71.70
44111;DHT22;29774;52.664;5.074;2022-10-01T13:46:46;17.30;71.40
44111;DHT22;29774;52.664;5.074;2022-10-01T13:49:24;17.30;71.10
44111;DHT22;29774;52.664;5.074;2022-10-01T13:51:51;17.40;71.70
44111;DHT22;29774;52.664;5.074;2022-10-01T13:54:38;17.40;70.60
44111;DHT22;29774;52.664;5.074;2022-10-01T13:57:26;17.40;71.30
44111;DHT22;29774;52.664;5.074;2022-10-01T14:02:39;17.40;71.20
44111;DHT22;29774;52.664;5.074;2022-10-01T14:05:30;17.40;70.90
44111;DHT22;29774;52.664;5.074;2022-10-01T14:08:07;17.30;70.80
44111;DHT22;29774;52.664;5.074;2022-10-01T14:10:48;17.40;70.80
44111;DHT22;29774;52.664;5.074;2022-10-01T14:13:41;17.40;71.10
44111;DHT22;29774;52.664;5.074;2022-10-01T14:16:28;17.30;72.00
44111;DHT22;29774;52.664;5.074;2022-10-01T14:18:55;17.30;71.20
44111;DHT22;29774;52.664;5.074;2022-10-01T14:21:38;17.40;71.40
44111;DHT22;29774;52.664;5.074;2022-10-01T14:27:13;17.30;71.90
44111;DHT22;29774;52.664;5.074;2022-10-01T14:30:02;17.30;71.40
44111;DHT22;29774;52.664;5.074;2022-10-01T14:35:45;17.30;70.80
44111;DHT22;29774;52.664;5.074;2022-10-01T14:38:19;17.40;71.30
44111;DHT22;29774;52.664;5.074;2022-10-01T14:40:47;17.30;69.20
44111;DHT22;29774;52.664;5.074;2022-10-01T14:43:27;17.30;71.90
44111;DHT22;29774;52.664;5.074;2022-10-01T14:48:24;17.30;71.10
44111;DHT22;29774;52.664;5.074;2022-10-01T14:50:52;17.20;71.40
44111;DHT22;29774;52.664;5.074;2022-10-01T14:53:21;17.40;70.90
44111;DHT22;29774;52.664;5.074;2022-10-01T14:55:49;17.40;71.40
44111;DHT22;29774;52.664;5.074;2022-10-01T14:58:29;17.40;71.10
44111;DHT22;29774;52.664;5.074;2022-10-01T15:00:56;17.40;70.30
44111;DHT22;29774;52.664;5.074;2022-10-01T15:03:22;17.50;71.30
44111;DHT22;29774;52.664;5.074;2022-10-01T15:05:49;17.30;70.60
44111;DHT22;29774;52.664;5.074;2022-10-01T15:08:20;17.40;71.40
44111;DHT22;29774;52.664;5.074;2022-10-01T15:10:51;17.40;71.60
44111;DHT22;29774;52.664;5.074;2022-10-01T15:13:26;17.30;71.80
44111;DHT22;29774;52.664;5.074;2022-10-01T15:15:58;17.30;71.40
44111;DHT22;29774;52.664;5.074;2022-10-01T15:18:25;17.30;71.20
44111;DHT22;29774;52.664;5.074;2022-10-01T15:21:00;17.20;70.20
44111;DHT22;29774;52.664;5.074;2022-10-01T15:23:31;17.20;70.80
44111;DHT22;29774;52.664;5.074;2022-10-01T15:26:00;17.20;71.20
44111;DHT22;29774;52.664;5.074;2022-10-01T15:28:27;17.30;71.50
44111;DHT22;29774;52.664;5.074;2022-10-01T15:30:57;17.20;71.40
44111;DHT22;29774;52.664;5.074;2022-10-01T15:33:27;17.20;70.10
44111;DHT22;29774;52.664;5.074;2022-10-01T15:35:58;17.30;70.20
44111;DHT22;29774;52.664;5.074;2022-10-01T15:38:26;17.20;70.90
44111;DHT22;29774;52.664;5.074;2022-10-01T15:40:55;17.20;69.60
44111;DHT22;29774;52.664;5.074;2022-10-01T15:43:38;17.10;71.20
44111;DHT22;29774;52.664;5.074;2022-10-01T15:46:14;17.00;71.80
44111;DHT22;29774;52.664;5.074;2022-10-01T15:48:40;17.20;71.20
44111;DHT22;29774;52.664;5.074;2022-10-01T15:51:14;17.10;70.70
44111;DHT22;29774;52.664;5.074;2022-10-01T15:53:41;17.10;71.00
44111;DHT22;29774;52.664;5.074;2022-10-01T15:56:09;17.10;71.10
44111;DHT22;29774;52.664;5.074;2022-10-01T15:58:51;16.70;71.10
44111;DHT22;29774;52.664;5.074;2022-10-01T16:01:22;16.60;71.70
44111;DHT22;29774;52.664;5.074;2022-10-01T16:03:52;16.40;71.10
44111;DHT22;29774;52.664;5.074;2022-10-01T16:09:00;16.70;72.40
44111;DHT22;29774;52.664;5.074;2022-10-01T16:11:28;16.60;70.30
44111;DHT22;29774;52.664;5.074;2022-10-01T16:20:01;16.10;73.70
44111;DHT22;29774;52.664;5.074;2022-10-01T16:22:34;15.90;73.10
44111;DHT22;29774;52.664;5.074;2022-10-01T16:25:04;15.80;72.50
44111;DHT22;29774;52.664;5.074;2022-10-01T16:27:45;15.80;73.30
44111;DHT22;29774;52.664;5.074;2022-10-01T16:30:19;15.30;74.20
44111;DHT22;29774;52.664;5.074;2022-10-01T16:32:45;15.50;74.70
44111;DHT22;29774;52.664;5.074;2022-10-01T16:37:48;15.50;73.40
44111;DHT22;29774;52.664;5.074;2022-10-01T16:40:16;15.50;73.90
44111;DHT22;29774;52.664;5.074;2022-10-01T16:42:43;15.30;74.20
44111;DHT22;29774;52.664;5.074;2022-10-01T16:45:13;15.20;74.60
44111;DHT22;29774;52.664;5.074;2022-10-01T16:47:40;15.20;75.30
44111;DHT22;29774;52.664;5.074;2022-10-01T16:50:09;15.00;75.80
44111;DHT22;29774;52.664;5.074;2022-10-01T16:52:35;14.90;76.40
44111;DHT22;29774;52.664;5.074;2022-10-01T16:55:02;14.70;76.20
44111;DHT22;29774;52.664;5.074;2022-10-01T16:57:27;15.00;77.20
44111;DHT22;29774;52.664;5.074;2022-10-01T16:59:53;15.30;73.90
44111;DHT22;29774;52.664;5.074;2022-10-01T17:02:19;15.00;75.30
44111;DHT22;29774;52.664;5.074;2022-10-01T17:04:44;15.00;76.10
44111;DHT22;29774;52.664;5.074;2022-10-01T17:07:10;14.80;75.40
44111;DHT22;29774;52.664;5.074;2022-10-01T17:09:35;14.90;76.50
44111;DHT22;29774;52.664;5.074;2022-10-01T17:12:01;14.50;76.80
44111;DHT22;29774;52.664;5.074;2022-10-01T17:14:30;14.50;76.90
44111;DHT22;29774;52.664;5.074;2022-10-01T17:17:15;14.40;77.60
44111;DHT22;29774;52.664;5.074;2022-10-01T17:19:44;14.20;78.30
44111;DHT22;29774;52.664;5.074;2022-10-01T17:22:09;13.80;79.80
44111;DHT22;29774;52.664;5.074;2022-10-01T17:24:35;13.70;80.80
44111;DHT22;29774;52.664;5.074;2022-10-01T17:27:00;13.50;81.10
44111;DHT22;29774;52.664;5.074;2022-10-01T17:29:26;13.40;81.90
44111;DHT22;29774;52.664;5.074;2022-10-01T17:31:54;13.30;82.90
44111;DHT22;29774;52.664;5.074;2022-10-01T17:34:20;13.10;83.70
44111;DHT22;29774;52.664;5.074;2022-10-01T17:36:46;13.00;84.40
44111;DHT22;29774;52.664;5.074;2022-10-01T17:39:11;12.90;84.40
44111;DHT22;29774;52.664;5.074;2022-10-01T17:41:37;12.80;85.70
44111;DHT22;29774;52.664;5.074;2022-10-01T17:44:03;12.70;84.80
44111;DHT22;29774;52.664;5.074;2022-10-01T17:46:29;12.70;85.60
44111;DHT22;29774;52.664;5.074;2022-10-01T17:48:55;12.70;85.10
44111;DHT22;29774;52.664;5.074;2022-10-01T17:51:20;12.90;84.80
44111;DHT22;29774;52.664;5.074;2022-10-01T17:53:46;12.70;85.60
44111;DHT22;29774;52.664;5.074;2022-10-01T17:56:15;12.60;85.50
44111;DHT22;29774;52.664;5.074;2022-10-01T17:58:44;12.70;85.90
44111;DHT22;29774;52.664;5.074;2022-10-01T18:01:11;12.70;84.40
44111;DHT22;29774;52.664;5.074;2022-10-01T18:03:38;12.40;85.50
44111;DHT22;29774;52.664;5.074;2022-10-01T18:06:03;12.40;86.70
44111;DHT22;29774;52.664;5.074;2022-10-01T18:08:30;12.30;86.40
44111;DHT22;29774;52.664;5.074;2022-10-01T18:11:06;12.20;87.00
44111;DHT22;29774;52.664;5.074;2022-10-01T18:13:33;12.20;86.80
44111;DHT22;29774;52.664;5.074;2022-10-01T18:16:00;12.00;87.50
44111;DHT22;29774;52.664;5.074;2022-10-01T18:18:26;12.00;88.10
44111;DHT22;29774;52.664;5.074;2022-10-01T18:20:52;12.00;87.60
44111;DHT22;29774;52.664;5.074;2022-10-01T18:23:17;11.80;87.10
44111;DHT22;29774;52.664;5.074;2022-10-01T18:25:43;11.90;88.50
44111;DHT22;29774;52.664;5.074;2022-10-01T18:28:08;11.90;88.20
44111;DHT22;29774;52.664;5.074;2022-10-01T18:30:34;11.80;87.20
44111;DHT22;29774;52.664;5.074;2022-10-01T18:33:00;11.70;87.60